createdAt,value
2019-01-31T00:00:12.527Z,-0.10
2019-01-31T00:03:04.663Z,-0.20
2019-01-31T00:05:59.498Z,-0.20
2019-01-31T00:09:06.582Z,-0.20
2019-01-31T00:12:13.922Z,-0.20
2019-01-31T00:15:06.928Z,-0.20
2019-01-31T00:17:51.883Z,-0.20
2019-01-31T00:20:50.061Z,-0.20
2019-01-31T00:23:46.947Z,-0.20
2019-01-31T00:26:50.209Z,-0.20
2019-01-31T00:29:47.917Z,-0.20
2019-01-31T00:32:44.327Z,-0.20
2019-01-31T00:35:56.251Z,-0.20
2019-01-31T00:38:43.971Z,-0.20
2019-01-31T00:41:59.031Z,-0.20
2019-01-31T00:45:12.395Z,-0.20
2019-01-31T00:47:54.406Z,-0.10
2019-01-31T00:50:55.611Z,-0.10
2019-01-31T00:53:53.351Z,-0.10
2019-01-31T00:57:07.450Z,-0.10
2019-01-31T01:00:20.251Z,-0.10
2019-01-31T01:03:33.152Z,-0.10
2019-01-31T01:06:34.772Z,-0.10
2019-01-31T01:09:30.058Z,-0.10
2019-01-31T01:13:01.310Z,-0.10
2019-01-31T01:15:54.751Z,-0.20
2019-01-31T01:18:42.661Z,-0.20
2019-01-31T01:21:37.560Z,-0.20
2019-01-31T01:24:16.110Z,-0.20
2019-01-31T01:27:34.719Z,-0.20
2019-01-31T01:30:33.931Z,-0.30
2019-01-31T01:33:50.103Z,-0.30
2019-01-31T01:37:00.433Z,-0.20
2019-01-31T01:40:07.571Z,-0.20
2019-01-31T01:43:01.729Z,-0.20
2019-01-31T01:45:48.717Z,-0.20
2019-01-31T01:48:38.919Z,-0.20
2019-01-31T01:51:13.011Z,-0.10
2019-01-31T01:53:53.592Z,-0.10
2019-01-31T01:57:00.193Z,-0.10
2019-01-31T01:59:51.745Z,-0.10
2019-01-31T02:02:50.367Z,-0.10
2019-01-31T02:05:46.853Z,-0.10
2019-01-31T02:08:59.717Z,-0.10
2019-01-31T02:12:22.089Z,-0.10
2019-01-31T02:15:22.512Z,-0.10
2019-01-31T02:18:08.117Z,-0.10
2019-01-31T02:21:27.104Z,-0.10
2019-01-31T02:24:24.484Z,-0.10
2019-01-31T02:27:30.730Z,-0.10
2019-01-31T02:30:40.505Z,-0.10
2019-01-31T02:33:56.300Z,-0.10
2019-01-31T02:37:02.197Z,0.00
2019-01-31T02:40:19.478Z,0.00
2019-01-31T02:43:00.552Z,0.00
2019-01-31T02:46:13.758Z,0.00
2019-01-31T02:49:22.757Z,0.00
2019-01-31T02:52:32.442Z,0.00
2019-01-31T02:55:27.503Z,0.00
2019-01-31T02:58:27.936Z,0.00
2019-01-31T03:01:22.373Z,0.00
2019-01-31T03:04:40.668Z,0.00
2019-01-31T03:07:51.045Z,0.00
2019-01-31T03:11:03.017Z,0.00
2019-01-31T03:13:50.416Z,0.00
2019-01-31T03:17:10.022Z,0.00
2019-01-31T03:19:50.752Z,0.00
2019-01-31T03:22:45.732Z,0.00
2019-01-31T03:25:58.082Z,0.00
2019-01-31T03:29:26.515Z,0.00
2019-01-31T03:32:30.699Z,0.00
2019-01-31T03:36:08.156Z,0.00
2019-01-31T03:38:57.297Z,0.00
2019-01-31T03:41:43.077Z,0.00
2019-01-31T03:44:26.700Z,0.00
2019-01-31T03:47:03.153Z,0.00
2019-01-31T03:50:02.835Z,0.00
2019-01-31T03:53:13.732Z,0.00
2019-01-31T03:56:08.284Z,0.00
2019-01-31T03:59:16.622Z,0.00
2019-01-31T04:01:58.397Z,0.00
2019-01-31T04:04:47.099Z,0.10
2019-01-31T04:07:16.193Z,0.10
2019-01-31T04:09:45.310Z,0.10
2019-01-31T04:12:14.416Z,0.10
2019-01-31T04:14:43.536Z,0.10
2019-01-31T04:17:12.752Z,0.10
2019-01-31T04:19:41.829Z,0.10
2019-01-31T04:22:10.947Z,0.20
2019-01-31T04:24:40.125Z,0.20
2019-01-31T04:27:09.209Z,0.20
2019-01-31T04:29:38.289Z,0.20
2019-01-31T04:32:07.363Z,0.20
2019-01-31T04:34:36.438Z,0.20
2019-01-31T04:37:05.514Z,0.20
2019-01-31T04:39:34.604Z,0.30
2019-01-31T04:42:03.752Z,0.30
2019-01-31T04:44:32.844Z,0.30
2019-01-31T04:47:02.010Z,0.30
2019-01-31T04:49:31.082Z,0.30
2019-01-31T04:52:00.155Z,0.30
2019-01-31T04:54:29.221Z,0.30
2019-01-31T04:56:58.294Z,0.30
2019-01-31T04:59:27.364Z,0.30
2019-01-31T05:01:56.650Z,0.30
2019-01-31T05:04:25.793Z,0.30
2019-01-31T05:06:54.877Z,0.30
2019-01-31T05:09:23.954Z,0.30
2019-01-31T05:11:53.022Z,0.40
2019-01-31T05:14:22.114Z,0.30
2019-01-31T05:16:51.556Z,0.40
2019-01-31T05:19:20.667Z,0.40
2019-01-31T05:21:49.752Z,0.40
2019-01-31T05:24:18.876Z,0.40
2019-01-31T05:26:47.938Z,0.40
2019-01-31T05:29:17.047Z,0.50
2019-01-31T05:31:46.166Z,0.50
2019-01-31T05:34:15.258Z,0.50
2019-01-31T05:36:44.345Z,0.50
2019-01-31T05:39:13.414Z,0.60
2019-01-31T05:41:42.524Z,0.60
2019-01-31T05:44:11.662Z,0.60
2019-01-31T05:46:40.729Z,0.60
2019-01-31T05:49:09.821Z,0.70
2019-01-31T05:51:39.470Z,0.70
2019-01-31T05:54:08.640Z,0.80
2019-01-31T05:56:37.733Z,0.70
2019-01-31T05:59:06.813Z,0.80
2019-01-31T06:01:35.938Z,0.80
2019-01-31T06:04:05.059Z,0.80
2019-01-31T06:06:34.175Z,0.80
2019-01-31T06:09:04.550Z,0.80
2019-01-31T06:11:33.644Z,0.80
2019-01-31T06:14:02.737Z,0.70
2019-01-31T06:16:31.936Z,0.70
2019-01-31T06:19:01.088Z,0.70
2019-01-31T06:21:30.176Z,0.80
2019-01-31T06:23:59.242Z,0.80
2019-01-31T06:26:28.659Z,0.80
2019-01-31T06:28:57.794Z,0.80
2019-01-31T06:31:26.877Z,0.80
2019-01-31T06:33:55.980Z,0.70
2019-01-31T06:36:25.052Z,0.70
2019-01-31T06:38:54.126Z,0.70
2019-01-31T06:41:23.228Z,0.70
2019-01-31T06:43:52.333Z,0.70
2019-01-31T06:46:21.423Z,0.70
2019-01-31T06:48:50.526Z,0.70
2019-01-31T06:51:19.637Z,0.70
2019-01-31T06:53:48.716Z,0.70
2019-01-31T06:56:17.789Z,0.70
2019-01-31T06:58:46.885Z,0.70
2019-01-31T07:01:16.012Z,0.70
2019-01-31T07:03:45.104Z,0.70
2019-01-31T07:06:14.205Z,0.60
2019-01-31T07:08:43.310Z,0.60
2019-01-31T07:11:12.431Z,0.60
2019-01-31T07:13:41.580Z,0.60
2019-01-31T07:16:10.692Z,0.50
2019-01-31T07:18:39.800Z,0.40
2019-01-31T07:21:08.902Z,0.30
2019-01-31T07:23:38.012Z,0.20
2019-01-31T07:26:07.105Z,0.10
2019-01-31T07:28:36.184Z,0.10
2019-01-31T07:31:05.559Z,0.10
2019-01-31T07:33:34.655Z,0.00
2019-01-31T07:36:03.800Z,0.00
2019-01-31T07:38:32.905Z,0.10
2019-01-31T07:41:02.082Z,0.10
2019-01-31T07:43:31.201Z,0.20
2019-01-31T07:46:00.277Z,0.30
2019-01-31T07:48:29.364Z,0.30
2019-01-31T07:50:58.474Z,0.40
2019-01-31T07:53:27.571Z,0.40
2019-01-31T07:55:56.659Z,0.50
2019-01-31T07:58:25.751Z,0.60
2019-01-31T08:00:54.847Z,0.60
2019-01-31T08:03:23.948Z,0.70
2019-01-31T08:05:53.018Z,0.70
2019-01-31T08:08:22.666Z,0.70
2019-01-31T08:10:51.752Z,0.80
2019-01-31T08:13:20.895Z,0.90
2019-01-31T08:15:49.982Z,0.90
2019-01-31T08:18:19.123Z,0.90
2019-01-31T08:20:48.221Z,0.90
2019-01-31T08:23:17.355Z,0.90
2019-01-31T08:25:46.508Z,0.90
2019-01-31T08:28:15.609Z,0.90
2019-01-31T08:30:44.925Z,0.90
2019-01-31T08:33:14.156Z,0.90
2019-01-31T08:35:43.271Z,1.00
2019-01-31T08:38:12.352Z,0.90
2019-01-31T08:40:41.495Z,1.00
2019-01-31T08:43:10.591Z,1.00
2019-01-31T08:45:39.675Z,1.00
2019-01-31T08:48:08.868Z,1.00
2019-01-31T08:50:38.343Z,1.00
2019-01-31T08:53:07.405Z,0.90
2019-01-31T08:55:36.499Z,1.00
2019-01-31T08:58:05.597Z,0.90
2019-01-31T09:00:34.755Z,0.90
2019-01-31T09:03:03.828Z,0.90
2019-01-31T09:05:32.915Z,0.90
2019-01-31T09:08:01.981Z,1.00
2019-01-31T09:10:33.670Z,1.00
2019-01-31T09:13:05.093Z,1.00
2019-01-31T09:15:34.192Z,1.00
2019-01-31T09:18:03.474Z,1.00
2019-01-31T09:20:40.186Z,1.10
2019-01-31T09:23:30.053Z,1.00
2019-01-31T09:26:30.797Z,1.10
2019-01-31T09:29:24.210Z,1.10
2019-01-31T09:32:29.381Z,1.10
2019-01-31T09:35:28.839Z,1.10
2019-01-31T09:38:41.669Z,1.10
2019-01-31T09:41:44.140Z,1.10
2019-01-31T09:44:55.977Z,1.10
2019-01-31T09:48:00.894Z,1.10
2019-01-31T09:51:07.032Z,1.10
2019-01-31T09:54:14.840Z,1.20
2019-01-31T09:57:29.070Z,1.20
2019-01-31T10:00:27.113Z,1.20
2019-01-31T10:03:28.096Z,1.20
2019-01-31T10:06:35.050Z,1.20
2019-01-31T10:10:06.800Z,1.20
2019-01-31T10:13:18.798Z,1.20
2019-01-31T10:16:23.692Z,1.20
2019-01-31T10:19:36.129Z,1.20
2019-01-31T10:22:30.610Z,1.20
2019-01-31T10:25:38.280Z,1.20
2019-01-31T10:28:32.545Z,1.30
2019-01-31T10:31:09.440Z,1.40
2019-01-31T10:34:27.578Z,1.50
2019-01-31T10:37:37.822Z,1.50
2019-01-31T10:40:51.504Z,1.50
2019-01-31T10:43:35.480Z,1.50
2019-01-31T10:46:38.798Z,1.50
2019-01-31T10:49:25.990Z,1.50
2019-01-31T10:52:23.482Z,1.60
2019-01-31T10:55:58.028Z,1.60
2019-01-31T10:59:00.484Z,1.60
2019-01-31T11:02:22.660Z,1.60
2019-01-31T11:05:19.894Z,1.70
2019-01-31T11:08:23.500Z,1.70
2019-01-31T11:11:14.185Z,1.70
2019-01-31T11:14:19.458Z,1.80
2019-01-31T11:17:13.524Z,1.90
2019-01-31T11:20:11.540Z,2.10
2019-01-31T11:23:06.132Z,2.20
2019-01-31T11:25:58.879Z,2.40
2019-01-31T11:28:58.692Z,2.60
2019-01-31T11:32:27.232Z,2.70
2019-01-31T11:35:43.398Z,2.90
2019-01-31T11:38:34.532Z,3.00
2019-01-31T11:41:56.878Z,3.00
2019-01-31T11:44:59.576Z,3.10
2019-01-31T11:48:08.748Z,3.20
2019-01-31T11:51:34.398Z,3.30
2019-01-31T11:54:22.498Z,3.40
2019-01-31T11:57:39.112Z,3.40
2019-01-31T12:00:13.398Z,3.50
2019-01-31T12:02:42.658Z,3.50
2019-01-31T12:05:30.891Z,3.60
2019-01-31T12:08:00.104Z,3.70
2019-01-31T12:10:29.364Z,3.70
2019-01-31T12:12:58.818Z,3.70
2019-01-31T12:15:28.013Z,3.70
2019-01-31T12:17:57.277Z,3.70
2019-01-31T12:20:26.510Z,3.70
2019-01-31T12:22:55.840Z,3.80
2019-01-31T12:25:25.106Z,3.80
2019-01-31T12:27:54.204Z,3.80
2019-01-31T12:30:25.828Z,3.80
2019-01-31T12:32:55.084Z,3.90
2019-01-31T12:35:24.398Z,3.80
2019-01-31T12:37:53.542Z,3.90
2019-01-31T12:40:22.679Z,3.90
2019-01-31T12:42:51.776Z,3.90
2019-01-31T12:45:21.355Z,4.00
2019-01-31T12:47:50.600Z,4.10
2019-01-31T12:50:22.459Z,4.10
2019-01-31T12:52:51.576Z,4.30
2019-01-31T12:55:20.692Z,4.40
2019-01-31T12:57:49.882Z,4.60
2019-01-31T13:00:24.562Z,4.70
2019-01-31T13:02:53.758Z,4.80
2019-01-31T13:05:23.055Z,4.70
2019-01-31T13:07:52.210Z,4.50
2019-01-31T13:10:21.385Z,4.30
2019-01-31T13:12:51.749Z,4.10
2019-01-31T13:15:20.952Z,4.00
2019-01-31T13:17:50.174Z,3.90
2019-01-31T13:20:21.238Z,3.80
2019-01-31T13:22:52.346Z,3.90
2019-01-31T13:25:23.086Z,3.90
2019-01-31T13:27:52.509Z,4.00
2019-01-31T13:30:21.923Z,4.10
2019-01-31T13:32:51.411Z,4.20
2019-01-31T13:35:20.475Z,4.20
2019-01-31T13:37:49.595Z,4.10
2019-01-31T13:40:23.705Z,4.10
2019-01-31T13:42:53.648Z,4.00
2019-01-31T13:45:36.816Z,3.90
2019-01-31T13:48:08.847Z,3.80
2019-01-31T13:50:37.942Z,3.80
2019-01-31T13:53:08.386Z,3.80
2019-01-31T13:55:37.471Z,3.90
2019-01-31T13:58:09.959Z,3.90
2019-01-31T14:00:37.644Z,3.90
2019-01-31T14:03:06.826Z,3.90
2019-01-31T14:05:35.939Z,3.90
2019-01-31T14:08:05.557Z,4.00
2019-01-31T14:10:37.287Z,4.00
2019-01-31T14:13:05.523Z,4.00
2019-01-31T14:15:35.575Z,3.90
2019-01-31T14:18:04.635Z,3.70
2019-01-31T14:20:34.209Z,3.50
2019-01-31T14:23:03.308Z,3.30
2019-01-31T14:25:32.472Z,3.00
2019-01-31T14:28:01.555Z,2.80
2019-01-31T14:30:38.552Z,2.60
2019-01-31T14:33:16.089Z,2.30
2019-01-31T14:35:45.206Z,2.10
2019-01-31T14:38:14.299Z,1.90
2019-01-31T14:40:43.394Z,1.80
2019-01-31T14:43:12.491Z,1.70
2019-01-31T14:45:41.613Z,1.60
2019-01-31T14:48:10.749Z,1.50
2019-01-31T14:50:39.822Z,1.50
2019-01-31T14:53:09.022Z,1.40
2019-01-31T14:55:38.107Z,1.30
2019-01-31T14:58:09.125Z,1.20
2019-01-31T15:00:38.206Z,1.20
2019-01-31T15:03:07.307Z,1.10
2019-01-31T15:05:36.912Z,1.00
2019-01-31T15:08:06.977Z,1.00
2019-01-31T15:10:36.243Z,0.90
2019-01-31T15:13:05.584Z,0.90
2019-01-31T15:15:34.667Z,0.80
2019-01-31T15:18:04.366Z,0.80
2019-01-31T15:20:39.456Z,0.70
2019-01-31T15:23:08.530Z,0.70
2019-01-31T15:25:37.636Z,0.70
2019-01-31T15:28:06.787Z,0.60
2019-01-31T15:30:36.220Z,0.50
2019-01-31T15:33:10.601Z,0.50
2019-01-31T15:35:40.075Z,0.50
2019-01-31T15:38:09.182Z,0.60
2019-01-31T15:40:41.581Z,0.60
2019-01-31T15:43:10.745Z,0.60
2019-01-31T15:45:39.847Z,0.60
2019-01-31T15:48:10.835Z,0.50
2019-01-31T15:50:40.269Z,0.50
2019-01-31T15:53:09.397Z,0.50
2019-01-31T15:55:38.633Z,0.50
2019-01-31T15:58:08.833Z,0.50
2019-01-31T16:00:49.873Z,0.40
2019-01-31T16:03:21.193Z,0.30
2019-01-31T16:05:50.686Z,0.30
2019-01-31T16:08:20.207Z,0.20
2019-01-31T16:10:49.325Z,0.20
2019-01-31T16:13:18.579Z,0.20
2019-01-31T16:15:48.238Z,0.10
2019-01-31T16:18:17.385Z,0.00
2019-01-31T16:20:46.574Z,0.00
2019-01-31T16:23:16.095Z,-0.10
2019-01-31T16:25:47.880Z,-0.10
2019-01-31T16:28:16.503Z,-0.20
2019-01-31T16:30:45.663Z,-0.30
2019-01-31T16:33:14.781Z,-0.40
2019-01-31T16:35:44.675Z,-0.50
2019-01-31T16:38:13.864Z,-0.60
2019-01-31T16:40:42.957Z,-0.70
2019-01-31T16:43:12.168Z,-0.70
2019-01-31T16:45:41.255Z,-0.80
2019-01-31T16:48:10.479Z,-0.90
2019-01-31T16:50:39.549Z,-1.00
2019-01-31T16:53:09.576Z,-1.00
2019-01-31T16:55:38.706Z,-1.10
2019-01-31T16:58:09.059Z,-1.20
2019-01-31T17:00:38.201Z,-1.20
2019-01-31T17:03:07.686Z,-1.20
2019-01-31T17:05:36.877Z,-1.30
2019-01-31T17:08:06.997Z,-1.30
2019-01-31T17:10:36.192Z,-1.30
2019-01-31T17:13:06.038Z,-1.30
2019-01-31T17:15:35.334Z,-1.30
2019-01-31T17:18:12.481Z,-1.30
2019-01-31T17:20:43.692Z,-1.30
2019-01-31T17:23:12.825Z,-1.20
2019-01-31T17:25:42.008Z,-1.20
2019-01-31T17:28:11.208Z,-1.20
2019-01-31T17:30:40.328Z,-1.20
2019-01-31T17:33:09.460Z,-1.10
2019-01-31T17:35:38.544Z,-1.10
2019-01-31T17:38:07.755Z,-1.10
2019-01-31T17:40:38.861Z,-1.10
2019-01-31T17:43:08.985Z,-1.10
2019-01-31T17:45:38.085Z,-1.00
2019-01-31T17:48:09.111Z,-1.00
2019-01-31T17:50:38.296Z,-1.00
2019-01-31T17:53:07.562Z,-1.00
2019-01-31T17:55:36.786Z,-1.00
2019-01-31T17:58:06.133Z,-1.00
2019-01-31T18:00:55.331Z,-0.90
2019-01-31T18:03:24.471Z,-1.00
2019-01-31T18:05:53.651Z,-0.90
2019-01-31T18:08:22.727Z,-1.00
2019-01-31T18:10:51.860Z,-0.90
2019-01-31T18:13:20.976Z,-0.90
2019-01-31T18:15:50.075Z,-1.00
2019-01-31T18:18:19.170Z,-1.00
2019-01-31T18:20:48.276Z,-1.00
2019-01-31T18:23:17.457Z,-0.90
2019-01-31T18:25:46.538Z,-1.00
2019-01-31T18:28:15.681Z,-1.00
2019-01-31T18:30:44.790Z,-0.90
2019-01-31T18:33:13.931Z,-0.90
2019-01-31T18:35:43.026Z,-0.90
2019-01-31T18:38:12.162Z,-0.90
2019-01-31T18:40:42.643Z,-0.80
2019-01-31T18:43:11.902Z,-0.80
2019-01-31T18:45:40.997Z,-0.80
2019-01-31T18:48:10.207Z,-0.80
2019-01-31T18:50:41.318Z,-0.70
2019-01-31T18:53:10.533Z,-0.70
2019-01-31T18:55:39.688Z,-0.60
2019-01-31T18:58:09.129Z,-0.60
2019-01-31T19:00:40.496Z,-0.60
2019-01-31T19:03:09.703Z,-0.50
2019-01-31T19:05:39.331Z,-0.50
2019-01-31T19:08:09.081Z,-0.50
2019-01-31T19:10:43.288Z,-0.40
2019-01-31T19:13:09.290Z,-0.40
2019-01-31T19:15:38.398Z,-0.40
2019-01-31T19:18:07.871Z,-0.40
2019-01-31T19:20:37.153Z,-0.40
2019-01-31T19:23:09.226Z,-0.40
2019-01-31T19:25:38.386Z,-0.40
2019-01-31T19:28:08.079Z,-0.40
2019-01-31T19:30:39.100Z,-0.30
2019-01-31T19:33:08.841Z,-0.30
2019-01-31T19:35:38.165Z,-0.30
2019-01-31T19:38:09.752Z,-0.30
2019-01-31T19:40:41.159Z,-0.30
2019-01-31T19:43:10.259Z,-0.30
2019-01-31T19:45:41.505Z,-0.20
2019-01-31T19:48:10.938Z,-0.20
2019-01-31T19:50:43.267Z,-0.20
2019-01-31T19:53:11.127Z,-0.20
2019-01-31T19:55:40.351Z,-0.20
2019-01-31T19:58:09.564Z,-0.20
2019-01-31T20:00:38.941Z,-0.20
2019-01-31T20:03:08.204Z,-0.20
2019-01-31T20:05:37.464Z,-0.20
2019-01-31T20:08:09.043Z,-0.20
2019-01-31T20:10:38.213Z,-0.20
2019-01-31T20:13:07.446Z,-0.20
2019-01-31T20:15:36.662Z,-0.20
2019-01-31T20:18:06.266Z,-0.10
2019-01-31T20:20:35.393Z,-0.10
2019-01-31T20:23:04.796Z,-0.10
2019-01-31T20:25:34.088Z,-0.10
2019-01-31T20:28:03.276Z,-0.10
2019-01-31T20:30:33.037Z,-0.20
2019-01-31T20:33:02.973Z,-0.20
2019-01-31T20:35:32.554Z,-0.10
2019-01-31T20:38:02.439Z,-0.20
2019-01-31T20:40:39.834Z,-0.20
2019-01-31T20:43:09.361Z,-0.10
2019-01-31T20:45:38.464Z,-0.10
2019-01-31T20:54:47.457Z,-0.10
2019-01-31T20:57:16.700Z,-0.10
2019-01-31T21:00:00.784Z,0.00
2019-01-31T21:03:09.349Z,0.00
2019-01-31T21:06:14.008Z,0.00
2019-01-31T21:09:22.834Z,0.00
2019-01-31T21:12:44.178Z,0.10
2019-01-31T21:18:14.269Z,0.10
2019-01-31T21:21:05.575Z,0.10
2019-01-31T21:24:12.091Z,0.10
2019-01-31T21:26:45.962Z,0.10
2019-01-31T21:29:24.789Z,0.10
2019-01-31T21:32:16.007Z,0.10
2019-01-31T21:35:42.778Z,0.20
2019-01-31T21:38:12.724Z,0.20
2019-01-31T21:40:47.259Z,0.20
2019-01-31T21:43:16.355Z,0.20
2019-01-31T21:45:49.863Z,0.20
2019-01-31T21:48:19.313Z,0.20
2019-01-31T21:50:48.773Z,0.30
2019-01-31T21:53:18.431Z,0.30
2019-01-31T21:55:49.527Z,0.30
2019-01-31T21:58:18.593Z,0.30
2019-01-31T22:00:47.717Z,0.30
2019-01-31T22:03:18.957Z,0.30
2019-01-31T22:05:50.418Z,0.30
2019-01-31T22:08:19.723Z,0.40
2019-01-31T22:10:49.745Z,0.40
2019-01-31T22:13:52.847Z,0.40
2019-01-31T22:16:21.963Z,0.40
2019-01-31T22:18:51.334Z,0.40
2019-01-31T22:21:20.643Z,0.40
2019-01-31T22:23:49.912Z,0.40
2019-01-31T22:26:48.467Z,0.50
2019-01-31T22:29:17.724Z,0.50
2019-01-31T22:32:06.666Z,0.50
2019-01-31T22:34:45.950Z,0.50
2019-01-31T22:37:18.206Z,0.50
2019-01-31T22:39:47.580Z,0.50
2019-01-31T22:42:19.131Z,0.50
2019-01-31T22:44:48.296Z,0.60
2019-01-31T22:47:25.897Z,0.50
2019-01-31T22:49:48.345Z,0.60
2019-01-31T22:52:42.565Z,0.50
2019-01-31T22:55:14.403Z,0.60
2019-01-31T22:57:44.230Z,0.60
2019-01-31T23:00:31.330Z,0.50
2019-01-31T23:02:58.352Z,0.50
2019-01-31T23:05:41.013Z,0.60
2019-01-31T23:08:10.333Z,0.60
2019-01-31T23:10:43.858Z,0.60
2019-01-31T23:13:14.893Z,0.60
2019-01-31T23:15:43.977Z,0.60
2019-01-31T23:18:13.153Z,0.60
2019-01-31T23:20:44.441Z,0.60
2019-01-31T23:23:13.215Z,0.60
2019-01-31T23:25:43.979Z,0.70
2019-01-31T23:28:13.204Z,0.70
2019-01-31T23:30:42.305Z,0.70
2019-01-31T23:33:11.429Z,0.70
2019-01-31T23:35:47.188Z,0.70
2019-01-31T23:38:16.537Z,0.70
2019-01-31T23:40:45.664Z,0.70
2019-01-31T23:43:14.751Z,0.70
2019-01-31T23:45:44.499Z,0.70
2019-01-31T23:48:13.943Z,0.80
2019-01-31T23:50:47.767Z,0.80
2019-01-31T23:53:16.861Z,0.80
2019-01-31T23:55:48.617Z,0.80
2019-01-31T23:58:22.229Z,0.90
